Time;durP1;ratioP1;P1;durP2;ratioP2;P2;SDS_P1;SDS_P2;PMS_P1;PMS_P2;Temp;Humidity;BMP_temperature;BMP_pressure;BME280_temperature;BME280_humidity;BME280_pressure;Samples;Min_cycle;Max_cycle;Signal;HPM_P1;HPM_P2
2021/09/05 00:02:12;;;;;;;9.43;6.77;;;15.00;99.90;;;;;;4976302;28;20226;-78
2021/09/05 00:04:37;;;;;;;12.17;6.90;;;15.00;99.90;;;;;;4971433;28;20633;-78
2021/09/05 00:07:03;;;;;;;8.47;6.47;;;15.00;99.90;;;;;;4962905;28;20245;-80
2021/09/05 00:09:31;;;;;;;8.30;6.77;;;15.00;99.90;;;;;;4978072;28;20545;-78
2021/09/05 00:11:56;;;;;;;8.97;6.30;;;15.00;99.90;;;;;;4961359;28;20290;-78
2021/09/05 00:14:22;;;;;;;8.70;7.10;;;15.00;99.90;;;;;;4957004;28;20628;-78
2021/09/05 00:16:50;;;;;;;7.93;7.10;;;14.90;99.90;;;;;;4978615;28;20569;-78
2021/09/05 00:19:16;;;;;;;6.63;5.60;;;14.90;99.90;;;;;;4961541;28;20197;-78
2021/09/05 00:21:42;;;;;;;8.60;6.70;;;14.90;99.90;;;;;;4977704;28;20656;-79
2021/09/05 00:24:09;;;;;;;7.37;6.67;;;14.90;99.90;;;;;;4964430;28;20259;-78
2021/09/05 00:26:37;;;;;;;8.87;6.83;;;14.80;99.90;;;;;;4978734;28;20225;-78
2021/09/05 00:29:03;;;;;;;9.83;6.40;;;14.80;99.90;;;;;;4978038;28;20622;-78
2021/09/05 00:31:38;;;;;;;8.40;6.10;;;14.80;99.90;;;;;;4961291;28;21078;-78
2021/09/05 00:34:06;;;;;;;7.40;5.73;;;14.80;99.90;;;;;;4974737;28;20194;-78
2021/09/05 00:36:32;;;;;;;7.60;5.87;;;14.80;99.90;;;;;;4980525;28;20649;-80
2021/09/05 00:39:00;;;;;;;8.50;6.40;;;14.70;99.90;;;;;;4976381;28;21229;-78
2021/09/05 00:41:31;;;;;;;8.17;7.10;;;14.70;99.90;;;;;;4977469;28;20267;-78
2021/09/05 00:44:08;;;;;;;8.47;6.70;;;14.70;99.90;;;;;;4980925;28;20607;-78
2021/09/05 00:46:35;;;;;;;7.07;6.10;;;14.60;99.90;;;;;;4961790;28;20766;-79
2021/09/05 00:49:01;;;;;;;6.20;5.63;;;14.60;99.90;;;;;;4979756;28;20613;-78
2021/09/05 00:51:30;;;;;;;7.93;6.87;;;14.60;99.90;;;;;;4978129;28;20643;-79
2021/09/05 00:54:00;;;;;;;6.60;5.50;;;14.60;99.90;;;;;;4978942;28;20691;-79
2021/09/05 00:56:28;;;;;;;7.63;6.27;;;14.60;99.90;;;;;;4977674;28;20719;-78
2021/09/05 00:58:55;;;;;;;6.77;5.50;;;14.50;99.90;;;;;;4960831;28;21535;-79
2021/09/05 01:01:30;;;;;;;7.80;6.20;;;14.50;99.90;;;;;;4978299;28;20657;-77
2021/09/05 01:03:56;;;;;;;8.57;6.00;;;14.50;99.90;;;;;;4976208;28;20581;-80
2021/09/05 01:06:22;;;;;;;8.20;6.43;;;14.40;99.90;;;;;;4958192;28;21270;-78
2021/09/05 01:08:51;;;;;;;7.20;6.40;;;14.40;99.90;;;;;;4974555;28;20187;-78
2021/09/05 01:11:17;;;;;;;6.37;5.30;;;14.40;99.90;;;;;;4977334;28;20700;-78
2021/09/05 01:13:43;;;;;;;7.00;6.13;;;14.40;99.90;;;;;;4979194;28;20618;-77
2021/09/05 01:16:30;;;;;;;5.43;4.93;;;14.30;99.90;;;;;;4976041;28;20643;-78
2021/09/05 01:19:07;;;;;;;8.17;5.43;;;14.30;99.90;;;;;;4979880;28;20197;-77
2021/09/05 01:21:35;;;;;;;7.13;6.23;;;14.30;99.90;;;;;;4959114;28;20652;-78
2021/09/05 01:24:02;;;;;;;7.47;5.60;;;14.30;99.90;;;;;;4975291;28;20704;-78
2021/09/05 01:26:29;;;;;;;6.13;5.27;;;14.30;99.90;;;;;;4957787;28;21152;-78
2021/09/05 01:28:56;;;;;;;7.80;5.87;;;14.30;99.90;;;;;;4980632;28;20679;-79
2021/09/05 01:31:22;;;;;;;7.70;5.93;;;14.30;99.90;;;;;;4973801;28;20621;-79
2021/09/05 01:33:49;;;;;;;6.93;5.90;;;14.20;99.90;;;;;;4976619;28;20617;-79
2021/09/05 01:36:17;;;;;;;6.83;5.27;;;14.20;99.90;;;;;;4977129;28;20735;-78
2021/09/05 01:38:43;;;;;;;6.00;5.00;;;14.20;99.90;;;;;;4988356;28;20617;-79
2021/09/05 01:41:11;;;;;;;7.00;5.70;;;14.10;99.90;;;;;;4996692;28;20731;-80
2021/09/05 01:43:39;;;;;;;6.67;5.60;;;14.10;99.90;;;;;;4984973;28;20217;-79
2021/09/05 01:46:07;;;;;;;5.60;5.00;;;14.10;99.90;;;;;;4980457;28;20716;-78
2021/09/05 01:48:32;;;;;;;6.47;5.33;;;14.10;99.90;;;;;;4982419;28;20645;-78
2021/09/05 01:50:58;;;;;;;6.13;4.67;;;14.10;99.90;;;;;;4979230;28;20625;-78
2021/09/05 01:53:24;;;;;;;7.80;5.80;;;14.00;99.90;;;;;;4979853;28;20292;-80
2021/09/05 01:55:52;;;;;;;6.23;5.50;;;14.00;99.90;;;;;;4978725;28;20702;-79
2021/09/05 01:58:18;;;;;;;6.60;5.47;;;14.00;99.90;;;;;;4977444;28;20218;-78
2021/09/05 02:00:44;;;;;;;7.90;5.40;;;14.00;99.90;;;;;;4962678;28;20629;-80
2021/09/05 02:03:09;;;;;;;6.43;5.40;;;13.90;99.90;;;;;;4960046;28;20644;-78
2021/09/05 02:05:35;;;;;;;6.87;5.90;;;13.90;99.90;;;;;;4978538;28;20226;-78
2021/09/05 02:08:01;;;;;;;8.07;5.10;;;13.90;99.90;;;;;;4978462;28;20218;-77
2021/09/05 02:10:29;;;;;;;6.27;5.63;;;13.90;99.90;;;;;;4959364;28;20200;-78
2021/09/05 02:12:54;;;;;;;9.27;5.90;;;13.80;99.90;;;;;;4979199;28;20202;-79
2021/09/05 02:15:20;;;;;;;8.47;5.50;;;13.80;99.90;;;;;;4958074;28;20656;-78
2021/09/05 02:17:46;;;;;;;5.87;5.27;;;13.80;99.90;;;;;;4975243;28;20263;-78
2021/09/05 02:20:14;;;;;;;6.00;5.20;;;13.80;99.90;;;;;;4975716;28;20190;-78
2021/09/05 02:22:40;;;;;;;6.13;5.53;;;13.80;99.90;;;;;;4981334;28;20266;-78
2021/09/05 02:25:07;;;;;;;6.80;5.47;;;13.70;99.90;;;;;;4963709;28;20643;-78
2021/09/05 02:27:41;;;;;;;6.00;5.07;;;13.70;99.90;;;;;;4983430;28;20723;-79
2021/09/05 02:30:09;;;;;;;6.23;5.13;;;13.70;99.90;;;;;;4978832;28;21098;-80
2021/09/05 02:32:35;;;;;;;6.40;5.00;;;13.70;99.90;;;;;;4982331;28;20621;-78
2021/09/05 02:35:00;;;;;;;6.20;5.40;;;13.70;99.90;;;;;;4978134;28;21025;-78
2021/09/05 02:37:29;;;;;;;6.80;5.87;;;13.50;99.90;;;;;;4981362;28;20217;-78
2021/09/05 02:39:54;;;;;;;5.60;4.90;;;13.50;99.90;;;;;;4964799;28;20194;-79
2021/09/05 02:42:20;;;;;;;9.23;5.40;;;13.50;99.90;;;;;;4982077;28;21271;-79
2021/09/05 02:44:48;;;;;;;8.67;5.33;;;13.50;99.90;;;;;;4980265;28;20245;-78
2021/09/05 02:47:16;;;;;;;8.03;5.67;;;13.50;99.90;;;;;;4977725;28;21055;-78
2021/09/05 02:49:42;;;;;;;9.73;6.20;;;13.40;99.90;;;;;;4977824;28;20956;-78
2021/09/05 02:52:09;;;;;;;5.57;4.60;;;13.40;99.90;;;;;;4981532;28;20720;-78
2021/09/05 02:54:38;;;;;;;6.00;5.37;;;13.30;99.90;;;;;;4961982;28;20268;-80
2021/09/05 02:57:06;;;;;;;7.00;5.90;;;13.30;99.90;;;;;;4978838;28;21491;-78
2021/09/05 02:59:32;;;;;;;5.83;4.90;;;13.30;99.90;;;;;;4981022;28;20877;-79
2021/09/05 03:02:01;;;;;;;7.50;6.00;;;13.30;99.90;;;;;;4962359;28;20672;-78
2021/09/05 03:04:27;;;;;;;6.90;5.77;;;13.20;99.90;;;;;;4961202;28;20666;-77
2021/09/05 03:06:53;;;;;;;8.67;6.47;;;13.20;99.90;;;;;;4965040;28;20649;-78
2021/09/05 03:09:18;;;;;;;5.27;4.77;;;13.20;99.90;;;;;;4984075;28;20635;-79
2021/09/05 03:11:44;;;;;;;7.80;5.63;;;13.10;99.90;;;;;;4961222;28;20260;-80
2021/09/05 03:14:09;;;;;;;5.57;5.07;;;13.10;99.90;;;;;;4960097;28;20280;-79
2021/09/05 03:16:35;;;;;;;8.63;5.63;;;13.10;99.90;;;;;;4977843;28;20300;-78
2021/09/05 03:19:10;;;;;;;7.83;6.30;;;13.10;99.90;;;;;;4980278;28;20222;-78
2021/09/05 03:21:39;;;;;;;7.63;5.80;;;13.10;99.90;;;;;;4980131;28;20231;-80
2021/09/05 03:24:12;;;;;;;8.40;5.93;;;13.10;99.90;;;;;;4978660;28;20649;-79
2021/09/05 03:26:40;;;;;;;6.23;5.23;;;13.10;99.90;;;;;;4960006;28;20706;-80
2021/09/05 03:29:06;;;;;;;6.67;5.20;;;13.10;99.90;;;;;;4978417;28;20617;-79
2021/09/05 03:31:34;;;;;;;6.20;5.60;;;13.20;99.90;;;;;;4956695;28;20743;-79
2021/09/05 03:34:00;;;;;;;6.83;5.70;;;13.10;99.90;;;;;;4980754;28;20297;-80
2021/09/05 03:36:26;;;;;;;7.90;5.83;;;13.10;99.90;;;;;;4978910;28;20655;-78
2021/09/05 03:38:51;;;;;;;6.80;6.00;;;13.10;99.90;;;;;;4976731;28;20632;-78
2021/09/05 03:41:17;;;;;;;7.20;6.20;;;13.10;99.90;;;;;;4981928;28;20240;-78
2021/09/05 03:43:45;;;;;;;6.20;5.60;;;13.10;99.90;;;;;;4977324;28;20625;-78
2021/09/05 03:46:10;;;;;;;7.07;5.67;;;13.10;99.90;;;;;;4978232;28;20289;-79
2021/09/05 03:48:36;;;;;;;7.13;6.13;;;13.10;99.90;;;;;;4970090;28;20744;-80
2021/09/05 03:51:07;;;;;;;7.10;5.77;;;13.00;99.90;;;;;;4959170;28;20189;-78
2021/09/05 03:53:32;;;;;;;7.87;5.90;;;13.00;99.90;;;;;;4980674;28;20233;-79
2021/09/05 03:55:58;;;;;;;6.80;5.73;;;13.00;99.90;;;;;;4976342;28;20634;-78
2021/09/05 03:58:25;;;;;;;6.43;5.73;;;12.90;99.90;;;;;;4981539;28;20218;-78
2021/09/05 04:00:51;;;;;;;6.20;5.60;;;13.00;99.90;;;;;;4962868;28;20548;-78
2021/09/05 04:03:17;;;;;;;7.30;6.00;;;12.90;99.90;;;;;;4959857;28;20859;-78
2021/09/05 04:05:42;;;;;;;6.80;5.80;;;12.90;99.90;;;;;;4977777;28;20571;-78
2021/09/05 04:10:37;;;;;;;6.90;5.70;;;12.80;99.90;;;;;;4980776;28;20631;-80
2021/09/05 04:13:07;;;;;;;6.20;5.47;;;12.80;99.90;;;;;;4978741;28;20301;-80
2021/09/05 04:15:33;;;;;;;6.63;5.50;;;12.80;99.90;;;;;;4978535;28;20644;-78
2021/09/05 04:17:58;;;;;;;7.53;5.90;;;12.70;99.90;;;;;;4981190;28;20645;-78
2021/09/05 04:20:25;;;;;;;6.50;5.90;;;12.70;99.90;;;;;;4957582;28;20190;-78
2021/09/05 04:22:51;;;;;;;8.00;6.37;;;12.70;99.90;;;;;;4980974;28;20214;-78
2021/09/05 04:25:17;;;;;;;6.87;5.53;;;12.70;99.90;;;;;;4977261;28;20636;-78
2021/09/05 04:28:00;;;;;;;8.70;6.10;;;12.70;99.90;;;;;;4977306;28;20663;-78
2021/09/05 04:30:26;;;;;;;9.17;5.43;;;12.60;99.90;;;;;;4977605;28;20609;-81
2021/09/05 04:32:51;;;;;;;6.40;5.63;;;12.60;99.90;;;;;;4987343;28;20751;-80
2021/09/05 04:35:17;;;;;;;6.30;5.20;;;12.60;99.90;;;;;;5004467;28;20222;-81
2021/09/05 04:37:42;;;;;;;6.97;5.97;;;12.50;99.90;;;;;;4970010;28;20742;-78
2021/09/05 04:40:11;;;;;;;6.33;5.40;;;12.50;99.90;;;;;;4983002;28;20675;-79
2021/09/05 04:42:37;;;;;;;7.90;6.97;;;12.50;99.90;;;;;;4980890;28;20221;-78
2021/09/05 04:45:05;;;;;;;6.70;5.20;;;12.50;99.90;;;;;;4959207;28;20768;-80
2021/09/05 04:47:31;;;;;;;5.83;5.17;;;12.50;99.90;;;;;;4982890;28;20237;-81
2021/09/05 04:49:56;;;;;;;6.30;5.20;;;12.50;99.90;;;;;;4984654;28;20618;-79
2021/09/05 04:52:22;;;;;;;6.20;5.60;;;12.50;99.90;;;;;;4960701;28;20190;-79
2021/09/05 04:54:47;;;;;;;8.10;5.33;;;12.50;99.90;;;;;;4958991;28;20295;-78
2021/09/05 04:57:13;;;;;;;5.87;5.27;;;12.50;99.90;;;;;;4962992;28;20293;-78
2021/09/05 04:59:38;;;;;;;6.43;5.07;;;12.50;99.90;;;;;;4962386;28;20289;-78
2021/09/05 05:02:06;;;;;;;7.00;5.43;;;12.40;99.90;;;;;;4981578;28;20218;-79
2021/09/05 05:04:32;;;;;;;6.07;5.33;;;12.50;99.90;;;;;;4979925;28;20213;-77
2021/09/05 05:06:57;;;;;;;5.43;4.83;;;12.40;99.90;;;;;;4980238;28;20689;-78
2021/09/05 05:09:25;;;;;;;6.80;5.80;;;12.40;99.90;;;;;;4961221;28;20185;-78
2021/09/05 05:11:51;;;;;;;7.07;5.80;;;12.40;99.90;;;;;;4978131;28;20205;-79
2021/09/05 05:14:19;;;;;;;6.50;5.30;;;12.50;99.90;;;;;;4977694;28;20711;-78
2021/09/05 05:16:47;;;;;;;6.67;5.97;;;12.50;99.90;;;;;;4975471;28;20294;-78
2021/09/05 05:19:13;;;;;;;6.30;5.10;;;12.50;99.90;;;;;;4979760;28;20652;-78
2021/09/05 05:21:38;;;;;;;7.47;5.47;;;12.50;99.90;;;;;;4977226;28;20676;-77
2021/09/05 05:24:11;;;;;;;6.43;5.80;;;12.50;99.90;;;;;;4979953;28;20631;-78
2021/09/05 05:26:37;;;;;;;6.97;5.43;;;12.50;99.90;;;;;;4960845;28;20309;-80
2021/09/05 05:29:02;;;;;;;7.07;5.37;;;12.50;99.90;;;;;;4959881;28;20862;-78
2021/09/05 05:31:30;;;;;;;7.23;5.50;;;12.60;99.90;;;;;;4983433;28;20267;-78
2021/09/05 05:33:58;;;;;;;6.00;5.17;;;12.60;99.90;;;;;;4974583;28;21269;-79
2021/09/05 05:36:26;;;;;;;7.00;6.23;;;12.60;99.90;;;;;;4979215;28;20650;-79
2021/09/05 05:38:52;;;;;;;8.90;5.47;;;12.60;99.90;;;;;;4963190;28;20681;-79
2021/09/05 05:41:20;;;;;;;7.80;5.73;;;12.60;99.90;;;;;;4959958;28;20665;-80
2021/09/05 05:43:45;;;;;;;6.47;5.60;;;12.70;99.90;;;;;;4980912;28;20178;-78
2021/09/05 05:46:11;;;;;;;5.73;5.13;;;12.70;99.90;;;;;;4982594;28;20640;-78
2021/09/05 05:48:36;;;;;;;7.10;5.80;;;12.70;99.90;;;;;;4964928;28;20202;-78
2021/09/05 05:51:02;;;;;;;9.30;5.77;;;12.80;99.90;;;;;;4959492;28;20201;-78
2021/09/05 05:53:27;;;;;;;7.93;5.90;;;12.80;99.90;;;;;;4977310;28;20344;-79
2021/09/05 05:55:55;;;;;;;6.97;5.20;;;12.80;99.90;;;;;;4983199;28;20313;-78
2021/09/05 05:58:21;;;;;;;11.40;6.07;;;12.80;99.90;;;;;;4982807;28;20289;-78
2021/09/05 06:00:47;;;;;;;6.43;5.77;;;12.90;99.90;;;;;;4981767;28;20703;-78
2021/09/05 06:03:12;;;;;;;10.20;6.20;;;12.90;99.90;;;;;;4964247;28;20181;-78
2021/09/05 06:05:38;;;;;;;6.30;5.40;;;13.00;99.90;;;;;;4966957;28;20668;-78
2021/09/05 06:08:04;;;;;;;6.40;5.37;;;13.00;99.90;;;;;;4983002;28;20698;-78
2021/09/05 06:10:31;;;;;;;6.47;5.47;;;13.00;99.90;;;;;;4982948;28;20629;-79
2021/09/05 06:12:57;;;;;;;7.80;5.80;;;13.10;99.90;;;;;;4961571;28;20212;-80
2021/09/05 06:15:23;;;;;;;7.10;5.23;;;13.10;99.90;;;;;;4980062;28;20636;-78
2021/09/05 06:17:49;;;;;;;6.67;5.63;;;13.20;99.90;;;;;;4984734;28;20661;-78
2021/09/05 06:20:14;;;;;;;5.80;4.83;;;13.20;99.90;;;;;;4984788;28;20920;-79
2021/09/05 06:22:40;;;;;;;5.10;4.60;;;13.20;99.90;;;;;;4976820;28;20214;-78
2021/09/05 06:25:06;;;;;;;7.87;5.10;;;13.30;99.90;;;;;;4963929;28;20768;-78
2021/09/05 06:27:31;;;;;;;5.77;4.50;;;13.30;99.90;;;;;;4962674;28;20319;-79
2021/09/05 06:29:57;;;;;;;9.10;4.70;;;13.40;99.90;;;;;;4979745;28;20990;-77
2021/09/05 06:32:23;;;;;;;4.80;4.30;;;13.50;99.90;;;;;;4982199;28;20221;-79
2021/09/05 06:34:48;;;;;;;6.70;4.90;;;13.50;99.90;;;;;;4983980;28;20724;-78
2021/09/05 06:37:14;;;;;;;4.40;4.00;;;13.50;99.90;;;;;;4979038;28;20253;-79
2021/09/05 06:39:39;;;;;;;5.93;4.63;;;13.60;99.90;;;;;;4984366;28;20194;-78
2021/09/05 06:42:05;;;;;;;7.57;4.30;;;13.60;99.90;;;;;;4987080;28;20220;-78
2021/09/05 06:44:31;;;;;;;4.50;4.03;;;13.70;99.90;;;;;;4986087;28;20191;-78
2021/09/05 06:46:56;;;;;;;5.20;4.00;;;13.70;99.90;;;;;;4986562;28;20206;-77
2021/09/05 06:49:22;;;;;;;4.27;3.80;;;13.80;99.90;;;;;;4982401;28;20201;-77
2021/09/05 06:51:47;;;;;;;4.90;4.40;;;13.80;99.90;;;;;;4980485;28;20202;-78
2021/09/05 06:54:13;;;;;;;5.37;3.90;;;13.80;99.90;;;;;;4982213;28;20190;-78
2021/09/05 06:56:39;;;;;;;4.33;3.40;;;13.90;99.90;;;;;;4984984;28;20629;-78
2021/09/05 06:59:05;;;;;;;5.17;3.80;;;13.90;99.90;;;;;;4990288;28;20194;-78
2021/09/05 07:01:32;;;;;;;4.50;3.90;;;14.00;99.90;;;;;;4987910;28;20660;-81
2021/09/05 07:03:58;;;;;;;;;;;14.10;99.90;;;;;;4989112;28;20128;-81
2021/09/05 07:06:23;;;;;;;;;;;14.10;99.90;;;;;;4975288;28;19917;-80
2021/09/05 07:08:49;;;;;;;4.27;3.87;;;14.20;99.90;;;;;;4969689;28;20715;-80
2021/09/05 07:11:15;;;;;;;5.70;4.37;;;14.40;99.90;;;;;;4972338;28;24508;-81
2021/09/05 07:13:40;;;;;;;4.73;4.30;;;14.60;99.90;;;;;;4988862;28;24623;-80
2021/09/05 07:16:09;;;;;;;4.47;4.07;;;14.80;99.90;;;;;;4986856;28;24699;-80
2021/09/05 07:18:35;;;;;;;5.60;4.27;;;15.00;99.90;;;;;;4965892;28;24837;-80
2021/09/05 07:21:00;;;;;;;4.10;3.70;;;15.10;99.90;;;;;;4969186;28;20612;-80
2021/09/05 07:23:28;;;;;;;5.27;3.60;;;15.10;99.90;;;;;;4984512;28;20285;-79
2021/09/05 07:25:55;;;;;;;4.10;3.70;;;15.10;99.90;;;;;;4987253;28;20297;-79
2021/09/05 07:28:21;;;;;;;5.83;3.63;;;15.10;99.90;;;;;;4986382;28;20649;-80
2021/09/05 07:30:46;;;;;;;4.17;3.53;;;15.10;99.90;;;;;;4999426;28;20677;-81
2021/09/05 07:33:12;;;;;;;4.00;3.60;;;15.10;99.90;;;;;;4987799;28;20198;-79
2021/09/05 07:35:37;;;;;;;3.93;3.23;;;15.20;99.90;;;;;;4981695;28;20285;-80
2021/09/05 07:38:04;;;;;;;3.50;3.07;;;15.20;99.90;;;;;;4983436;28;20337;-81
2021/09/05 07:40:30;;;;;;;4.03;3.43;;;15.30;99.90;;;;;;4964846;28;20194;-79
2021/09/05 07:42:55;;;;;;;4.60;4.13;;;15.30;99.90;;;;;;4972520;28;20672;-79
2021/09/05 07:45:21;;;;;;;4.93;3.27;;;15.40;99.90;;;;;;4982106;28;20623;-80
2021/09/05 07:47:46;;;;;;;4.53;3.27;;;15.50;99.90;;;;;;4985884;28;20684;-79
2021/09/05 07:50:12;;;;;;;4.23;3.60;;;15.50;99.90;;;;;;4967789;28;20323;-79
2021/09/05 07:52:37;;;;;;;3.63;3.13;;;15.50;99.90;;;;;;4976667;28;20190;-78
2021/09/05 07:55:03;;;;;;;4.80;3.67;;;15.50;99.90;;;;;;4981925;28;20240;-78
2021/09/05 07:57:29;;;;;;;5.00;3.67;;;15.60;99.90;;;;;;4978196;28;20300;-78
2021/09/05 07:59:54;;;;;;;5.80;3.83;;;15.70;99.90;;;;;;4966068;28;20626;-77
2021/09/05 08:02:20;;;;;;;6.50;3.97;;;15.70;99.90;;;;;;4961641;28;20226;-78
2021/09/05 08:04:46;;;;;;;3.83;3.10;;;15.70;99.90;;;;;;4975634;28;20324;-78
2021/09/05 08:07:11;;;;;;;4.20;3.23;;;15.80;99.90;;;;;;4966917;28;20693;-78
2021/09/05 08:09:37;;;;;;;3.43;3.13;;;15.80;99.90;;;;;;4978178;28;20638;-78
2021/09/05 08:12:03;;;;;;;4.07;3.33;;;15.90;99.90;;;;;;4959822;28;20662;-79
2021/09/05 08:14:28;;;;;;;5.10;3.30;;;15.90;99.90;;;;;;4964416;28;20198;-78
2021/09/05 08:16:54;;;;;;;3.23;2.93;;;16.10;99.90;;;;;;4982006;28;20663;-78
2021/09/05 08:19:19;;;;;;;4.67;3.47;;;16.20;99.90;;;;;;4981449;28;20211;-78
2021/09/05 08:21:45;;;;;;;4.73;3.33;;;16.30;99.90;;;;;;4983006;28;20627;-78
2021/09/05 08:24:11;;;;;;;3.50;3.20;;;16.30;99.90;;;;;;4959269;28;20240;-79
2021/09/05 08:26:36;;;;;;;4.77;3.23;;;16.40;99.90;;;;;;4958651;28;20230;-79
2021/09/05 08:29:02;;;;;;;4.17;3.30;;;16.50;99.90;;;;;;4961755;28;20228;-78
2021/09/05 08:31:27;;;;;;;4.20;3.70;;;16.50;99.90;;;;;;4962875;28;20194;-78
2021/09/05 08:33:53;;;;;;;3.93;3.10;;;16.60;99.90;;;;;;4970780;28;20698;-78
2021/09/05 08:36:19;;;;;;;5.93;3.97;;;16.70;99.90;;;;;;4980784;28;20687;-78
2021/09/05 08:38:44;;;;;;;3.50;3.20;;;16.70;99.90;;;;;;4960637;28;20269;-80
2021/09/05 08:41:10;;;;;;;3.83;3.10;;;16.70;99.90;;;;;;4961553;28;20297;-77
2021/09/05 08:43:37;;;;;;;3.93;3.60;;;16.80;99.90;;;;;;4982398;28;20241;-78
2021/09/05 08:46:04;;;;;;;4.87;3.13;;;16.90;99.90;;;;;;4974202;28;20218;-79
2021/09/05 08:48:30;;;;;;;3.50;3.07;;;17.00;99.90;;;;;;4981628;28;20679;-78
2021/09/05 08:50:55;;;;;;;4.13;3.43;;;17.00;99.90;;;;;;4977950;28;21188;-78
2021/09/05 08:53:21;;;;;;;5.20;3.40;;;17.10;99.90;;;;;;4982497;28;20202;-78
2021/09/05 08:55:48;;;;;;;5.33;3.60;;;17.10;99.90;;;;;;4973152;28;20260;-79
2021/09/05 08:58:14;;;;;;;3.77;3.43;;;17.30;99.90;;;;;;4982412;28;20209;-78
2021/09/05 09:00:42;;;;;;;4.17;3.40;;;17.30;99.90;;;;;;4979667;28;21014;-78
2021/09/05 09:03:18;;;;;;;4.00;3.27;;;17.40;99.90;;;;;;4977290;28;20653;-78
2021/09/05 09:05:45;;;;;;;4.73;4.20;;;17.50;99.90;;;;;;4979238;28;20648;-78
2021/09/05 09:08:15;;;;;;;4.53;3.50;;;17.50;99.90;;;;;;4962318;28;20647;-78
2021/09/05 09:10:46;;;;;;;3.70;3.40;;;17.60;99.90;;;;;;4976466;28;20744;-78
2021/09/05 09:13:22;;;;;;;4.07;3.20;;;17.70;99.90;;;;;;4959469;28;20633;-80
2021/09/05 09:15:48;;;;;;;4.23;3.50;;;17.70;99.90;;;;;;4975479;28;20736;-78
2021/09/05 09:18:13;;;;;;;4.23;3.83;;;17.70;99.90;;;;;;4980215;28;20643;-79
2021/09/05 09:20:43;;;;;;;4.33;3.93;;;17.80;99.90;;;;;;4960342;28;20330;-78
2021/09/05 09:23:12;;;;;;;4.13;3.53;;;17.90;99.90;;;;;;4958773;28;20237;-79
2021/09/05 09:25:39;;;;;;;6.43;3.80;;;17.90;99.90;;;;;;4971404;28;20633;-78
2021/09/05 09:28:25;;;;;;;4.50;3.90;;;18.00;99.90;;;;;;4975429;28;20960;-77
2021/09/05 09:30:51;;;;;;;3.90;3.23;;;18.00;99.90;;;;;;4974888;28;20600;-79
2021/09/05 09:33:22;;;;;;;7.40;4.27;;;18.10;99.90;;;;;;4974836;28;20613;-78
2021/09/05 09:36:00;;;;;;;5.07;3.93;;;18.20;99.90;;;;;;4970814;28;20222;-79
2021/09/05 09:38:26;;;;;;;4.20;3.70;;;18.30;99.90;;;;;;4975245;28;20650;-77
2021/09/05 09:41:09;;;;;;;4.00;3.70;;;18.30;99.90;;;;;;4969145;28;20783;-78
2021/09/05 09:43:57;;;;;;;4.77;4.20;;;18.50;99.90;;;;;;4975655;28;20620;-79
2021/09/05 09:46:28;;;;;;;4.90;3.70;;;18.50;99.90;;;;;;4972768;28;20965;-81
2021/09/05 09:48:56;;;;;;;4.20;3.80;;;18.50;99.90;;;;;;4975426;28;22567;-78
2021/09/05 09:51:22;;;;;;;4.70;4.07;;;18.60;99.90;;;;;;4971840;28;20636;-79
2021/09/05 09:53:50;;;;;;;4.43;3.83;;;18.70;99.90;;;;;;4975475;28;20747;-78
2021/09/05 09:56:20;;;;;;;4.27;3.87;;;18.70;99.90;;;;;;4977944;28;20837;-78
2021/09/05 09:58:52;;;;;;;4.67;4.07;;;18.70;99.90;;;;;;4958220;28;20648;-79
2021/09/05 10:01:20;;;;;;;5.80;3.87;;;18.80;99.90;;;;;;4980291;28;21144;-77
2021/09/05 10:03:53;;;;;;;4.30;3.80;;;18.90;99.90;;;;;;4974527;28;20633;-78
2021/09/05 10:06:26;;;;;;;4.30;3.60;;;18.90;99.90;;;;;;4970658;28;21107;-78
2021/09/05 10:09:04;;;;;;;5.10;3.80;;;18.90;99.90;;;;;;4979202;28;20589;-79
2021/09/05 10:11:32;;;;;;;5.23;3.83;;;19.00;99.90;;;;;;4975398;28;20629;-78
2021/09/05 10:13:59;;;;;;;3.90;3.60;;;19.20;99.90;;;;;;4974003;28;20688;-79
2021/09/05 10:16:28;;;;;;;4.07;3.73;;;19.20;99.90;;;;;;4975343;28;20641;-78
2021/09/05 10:18:57;;;;;;;4.20;3.70;;;19.20;99.90;;;;;;4980529;28;20701;-78
2021/09/05 10:21:23;;;;;;;5.70;5.00;;;19.30;99.90;;;;;;4954385;28;20689;-78
2021/09/05 10:23:54;;;;;;;5.20;3.90;;;19.30;99.90;;;;;;4973121;28;20616;-78
2021/09/05 10:26:24;;;;;;;3.90;3.50;;;19.40;99.90;;;;;;4975024;28;20660;-78
2021/09/05 10:28:52;;;;;;;4.20;3.80;;;19.50;99.90;;;;;;4985385;28;20627;-79
2021/09/05 10:31:36;;;;;;;5.10;4.57;;;19.60;99.90;;;;;;4999303;28;20629;-79
2021/09/05 10:34:02;;;;;;;5.80;4.40;;;19.60;99.90;;;;;;4971061;28;20683;-78
2021/09/05 10:36:28;;;;;;;5.93;4.60;;;19.70;99.90;;;;;;4967447;28;20637;-79
2021/09/05 10:39:05;;;;;;;4.90;4.50;;;19.70;99.90;;;;;;4978452;28;20202;-79
2021/09/05 10:41:31;;;;;;;5.70;5.10;;;19.70;99.90;;;;;;4972304;28;20265;-79
2021/09/05 10:44:09;;;;;;;6.80;6.13;;;19.80;99.90;;;;;;4960230;28;20613;-79
2021/09/05 10:46:47;;;;;;;8.00;7.20;;;19.90;99.90;;;;;;4955108;28;20247;-78
2021/09/05 10:49:14;;;;;;;23.97;18.67;;;20.00;99.90;;;;;;4957130;28;20627;-79
2021/09/05 10:51:51;;;;;;;5.87;5.23;;;20.10;99.90;;;;;;4973966;28;20620;-78
2021/09/05 10:54:29;;;;;;;5.03;4.63;;;20.20;99.90;;;;;;4955907;28;21039;-77
2021/09/05 10:56:57;;;;;;;6.10;5.40;;;20.10;99.90;;;;;;4976980;28;20656;-78
2021/09/05 10:59:24;;;;;;;13.77;11.73;;;20.10;99.90;;;;;;4960680;28;20764;-78
2021/09/05 11:01:49;;;;;;;7.90;6.30;;;20.30;99.90;;;;;;4974386;28;20759;-79
2021/09/05 11:04:15;;;;;;;6.23;5.63;;;20.50;99.90;;;;;;4956338;28;20635;-78
2021/09/05 11:06:48;;;;;;;5.87;5.27;;;20.60;99.90;;;;;;4971666;28;20773;-78
2021/09/05 11:12:15;;;;;;;7.37;5.93;;;20.80;99.90;;;;;;4971535;28;21234;-78
2021/09/05 11:14:45;;;;;;;5.43;4.83;;;20.90;99.90;;;;;;4952350;28;20689;-78
2021/09/05 11:17:28;;;;;;;6.53;5.50;;;21.00;99.90;;;;;;4955175;28;21339;-77
2021/09/05 11:19:57;;;;;;;5.07;4.63;;;21.10;99.90;;;;;;4969421;28;20763;-77
2021/09/05 11:22:38;;;;;;;6.20;5.17;;;21.20;99.90;;;;;;4976205;28;20981;-76
2021/09/05 11:25:19;;;;;;;5.70;5.10;;;21.50;99.90;;;;;;4972954;28;20649;-76
2021/09/05 11:27:56;;;;;;;7.50;6.20;;;21.50;99.90;;;;;;4973571;28;20645;-76
2021/09/05 11:30:25;;;;;;;6.33;5.73;;;21.60;99.90;;;;;;4972648;28;20667;-76
2021/09/05 11:33:05;;;;;;;5.33;4.83;;;21.70;99.90;;;;;;4969439;28;20682;-77
2021/09/05 11:35:41;;;;;;;5.43;4.93;;;21.90;99.90;;;;;;4972835;28;20633;-77
2021/09/05 11:38:07;;;;;;;8.93;6.03;;;21.90;99.90;;;;;;4956135;28;20699;-76
2021/09/05 11:40:47;;;;;;;5.90;5.30;;;21.90;99.90;;;;;;4969790;28;20624;-76
2021/09/05 11:43:34;;;;;;;5.50;5.00;;;22.00;99.90;;;;;;4974143;28;20659;-77
2021/09/05 11:46:08;;;;;;;6.90;6.30;;;22.00;99.90;;;;;;4972568;28;20651;-76
2021/09/05 11:48:37;;;;;;;9.87;8.87;;;22.10;99.90;;;;;;4971886;28;21101;-76
2021/09/05 11:51:03;;;;;;;26.00;23.90;;;22.20;99.90;;;;;;4968243;28;20776;-77
2021/09/05 11:53:29;;;;;;;50.07;46.20;;;22.30;99.90;;;;;;4952526;28;20621;-76
2021/09/05 11:55:54;;;;;;;13.80;12.67;;;22.40;99.90;;;;;;4967830;28;21891;-76
2021/09/05 11:58:20;;;;;;;23.53;20.17;;;22.50;99.90;;;;;;4971912;28;20687;-77
2021/09/05 12:00:51;;;;;;;17.93;16.17;;;22.60;99.90;;;;;;4974797;28;20190;-76
2021/09/05 12:03:24;;;;;;;15.73;14.50;;;22.70;99.90;;;;;;4975932;28;20246;-77
2021/09/05 12:05:54;;;;;;;17.77;16.07;;;22.80;99.90;;;;;;4982466;28;20736;-78
2021/09/05 12:08:20;;;;;;;11.43;10.40;;;22.90;99.90;;;;;;4981010;28;20651;-76
2021/09/05 12:10:46;;;;;;;12.50;11.40;;;23.00;99.90;;;;;;4965628;28;20668;-77
2021/09/05 12:13:18;;;;;;;9.53;8.53;;;23.10;99.90;;;;;;4982720;28;20202;-76
2021/09/05 12:15:48;;;;;;;39.80;36.50;;;23.20;99.90;;;;;;4986048;28;21193;-75
2021/09/05 12:18:22;;;;;;;11.17;10.20;;;23.50;99.90;;;;;;4982696;28;21491;-76
2021/09/05 12:20:49;;;;;;;5.80;5.20;;;23.60;99.90;;;;;;4967894;28;21189;-76
2021/09/05 12:23:24;;;;;;;11.17;10.17;;;23.70;99.90;;;;;;4972962;28;20748;-76
2021/09/05 12:25:51;;;;;;;8.17;7.43;;;23.80;99.90;;;;;;4958529;28;20853;-76
2021/09/05 12:28:28;;;;;;;19.73;18.03;;;24.00;99.90;;;;;;4976115;28;20649;-76
2021/09/05 12:30:59;;;;;;;6.00;5.40;;;24.10;99.90;;;;;;4973717;28;20616;-75
2021/09/05 12:33:25;;;;;;;5.70;5.20;;;24.20;99.90;;;;;;4974466;28;20631;-76
2021/09/05 12:35:52;;;;;;;5.60;4.60;;;24.30;99.90;;;;;;4968757;28;20642;-78
2021/09/05 12:38:30;;;;;;;4.80;4.40;;;24.30;99.90;;;;;;4957054;28;20225;-77
2021/09/05 12:41:09;;;;;;;4.70;4.30;;;24.50;99.90;;;;;;4979047;28;20632;-77
2021/09/05 12:43:47;;;;;;;5.10;4.70;;;24.60;99.90;;;;;;4971794;28;20629;-77
2021/09/05 12:46:13;;;;;;;5.07;4.67;;;24.70;99.90;;;;;;4971409;28;20664;-76
2021/09/05 12:48:44;;;;;;;5.20;4.50;;;24.90;99.90;;;;;;4973513;28;21232;-76
2021/09/05 12:51:15;;;;;;;4.73;4.33;;;25.20;99.90;;;;;;4971200;28;21233;-76
2021/09/05 12:53:57;;;;;;;4.93;4.40;;;25.30;99.90;;;;;;4966772;28;20629;-76
2021/09/05 12:56:24;;;;;;;5.20;4.53;;;25.40;99.90;;;;;;4970089;28;20819;-78